Time;durP1;ratioP1;P1;durP2;ratioP2;P2;SDS_P1;SDS_P2;PMS_P1;PMS_P2;Temp;Humidity;BMP_temperature;BMP_pressure;BME280_temperature;BME280_humidity;BME280_pressure;Samples;Min_cycle;Max_cycle;Signal;HPM_P1;HPM_P2
2022/05/03 00:00:54;;;;;;;4.63;4.43;;;;;;;10.78;68.89;101286.63;6110326;23;20017;-72
2022/05/03 00:03:27;;;;;;;4.30;4.10;;;;;;;10.78;68.89;101284.88;6075608;23;20113;-72
2022/05/03 00:06:16;;;;;;;6.03;5.72;;;;;;;10.37;69.14;101235.00;6048550;23;20078;-71
2022/05/03 00:08:48;;;;;;;5.15;4.63;;;;;;;10.17;69.42;101206.97;6086130;23;20002;-72
2022/05/03 00:11:51;;;;;;;4.45;4.25;;;;;;;10.66;69.44;101277.50;6113074;23;20025;-73
2022/05/03 00:14:26;;;;;;;4.15;3.95;;;;;;;10.67;69.61;101284.47;6080232;23;20041;-73
2022/05/03 00:16:54;;;;;;;5.53;5.32;;;;;;;10.11;69.60;101196.72;6109232;23;20025;-72
2022/05/03 00:19:20;;;;;;;4.28;4.07;;;;;;;10.49;69.54;101272.16;6082077;23;20020;-73
2022/05/03 00:21:47;;;;;;;4.65;4.45;;;;;;;10.50;69.94;101274.72;6113757;23;20426;-70
2022/05/03 00:24:15;;;;;;;5.05;4.75;;;;;;;10.08;70.45;101211.72;6081617;23;20018;-72
2022/05/03 00:26:42;;;;;;;4.45;4.25;;;;;;;10.28;71.20;101260.75;6110568;23;20025;-73
2022/05/03 00:29:10;;;;;;;4.40;4.20;;;;;;;10.40;71.38;101278.63;6080584;23;20245;-73
2022/05/03 00:31:37;;;;;;;5.32;4.93;;;;;;;9.41;71.25;101118.41;6103872;23;20025;-72
2022/05/03 00:34:05;;;;;;;5.80;5.50;;;;;;;9.96;71.44;101205.22;6074202;23;20028;-73
2022/05/03 00:36:32;;;;;;;4.72;4.53;;;;;;;10.34;71.54;101271.00;6111419;23;20021;-72
2022/05/03 00:38:58;;;;;;;5.53;5.32;;;;;;;10.15;72.10;101252.53;6073010;23;20094;-72
2022/05/03 00:41:36;;;;;;;4.40;4.20;;;;;;;10.26;72.41;101271.28;6117282;23;20442;-72
2022/05/03 00:47:44;;;;;;;4.25;4.05;;;;;;;9.93;72.77;101228.97;6113631;23;20081;-72
2022/05/03 00:50:32;;;;;;;4.40;4.20;;;;;;;9.57;72.68;101177.97;6019129;23;20014;-73
2022/05/03 00:53:05;;;;;;;5.53;5.32;;;;;;;10.08;73.34;101264.19;6079453;23;20360;-71
2022/05/03 00:55:48;;;;;;;3.75;3.63;;;;;;;9.78;72.73;101233.03;6077289;23;20412;-73
2022/05/03 00:58:44;;;;;;;4.20;4.00;;;;;;;9.94;73.03;101267.38;6099494;23;20061;-71
2022/05/03 01:01:35;;;;;;;4.07;3.88;;;;;;;9.91;73.58;101263.09;6073479;23;20337;-72
2022/05/03 01:04:12;;;;;;;5.88;5.57;;;;;;;9.84;73.74;101272.13;6105938;23;20028;-72
2022/05/03 01:07:00;;;;;;;4.55;4.35;;;;;;;9.77;74.10;101268.91;6084193;23;20077;-72
2022/05/03 01:09:40;;;;;;;4.40;4.20;;;;;;;9.71;74.47;101257.81;6110435;23;20025;-72
2022/05/03 01:12:35;;;;;;;5.00;4.80;;;;;;;9.64;75.19;101262.44;6076377;23;20305;-71
2022/05/03 01:15:09;;;;;;;5.70;5.47;;;;;;;9.51;74.17;101248.97;6110513;23;20013;-71
2022/05/03 01:18:03;;;;;;;4.30;4.10;;;;;;;9.54;75.36;101272.44;6080208;23;20037;-72
2022/05/03 01:20:41;;;;;;;4.22;4.03;;;;;;;9.51;75.94;101269.91;6101426;23;20737;-71
2022/05/03 01:23:33;;;;;;;5.10;4.80;;;;;;;9.45;75.49;101287.66;6051281;23;20014;-72
2022/05/03 01:26:27;;;;;;;6.53;6.22;;;;;;;9.39;75.82;101275.63;6104976;23;20490;-72
2022/05/03 01:29:34;;;;;;;5.57;5.38;;;;;;;9.28;76.48;101270.81;6066977;23;20484;-71
2022/05/03 01:32:04;;;;;;;6.10;5.80;;;;;;;9.02;76.67;101247.34;6077935;23;20407;-72
2022/05/03 01:34:32;;;;;;;4.68;4.47;;;;;;;8.75;77.11;101211.66;6083167;23;20292;-71
2022/05/03 01:37:11;;;;;;;6.38;6.07;;;;;;;9.03;77.24;101259.53;6106605;23;20033;-72
2022/05/03 01:39:37;;;;;;;4.75;4.55;;;;;;;9.03;77.63;101264.78;6082431;23;20494;-71
2022/05/03 01:42:24;;;;;;;5.75;5.45;;;;;;;8.51;78.46;101212.53;6047245;23;20018;-71
2022/05/03 01:45:03;;;;;;;4.97;4.78;;;;;;;8.64;78.62;101215.56;6103031;23;20122;-71
2022/05/03 01:48:01;;;;;;;4.20;4.00;;;;;;;9.02;78.70;101268.28;6086831;23;20045;-72
2022/05/03 01:50:41;;;;;;;4.07;3.88;;;;;;;8.85;77.78;101246.19;6099819;23;20047;-71
2022/05/03 01:53:26;;;;;;;4.10;3.90;;;;;;;8.91;77.93;101266.06;6077802;23;20564;-73
2022/05/03 01:56:19;;;;;;;5.13;4.93;;;;;;;8.76;78.81;101273.56;6048583;23;20014;-72
2022/05/03 01:59:02;;;;;;;4.03;3.83;;;;;;;8.63;79.51;101253.97;6107334;23;20073;-74
2022/05/03 02:01:45;;;;;;;3.67;3.58;;;;;;;8.68;80.31;101266.88;6049810;23;20455;-72
2022/05/03 02:04:34;;;;;;;4.20;4.00;;;;;;;8.64;80.12;101263.53;6049145;23;20558;-72
2022/05/03 02:07:18;;;;;;;5.43;5.18;;;;;;;8.59;80.51;101254.97;6110971;23;20017;-72
2022/05/03 02:10:05;;;;;;;3.90;3.80;;;;;;;8.59;81.45;101260.22;6079412;23;20518;-72
2022/05/03 02:12:32;;;;;;;4.05;3.85;;;;;;;8.56;80.72;101260.34;6049653;23;20026;-72
2022/05/03 02:15:07;;;;;;;5.88;5.60;;;;;;;8.41;81.31;101247.75;6105554;23;20028;-72
2022/05/03 02:17:52;;;;;;;3.70;3.60;;;;;;;8.46;82.08;101266.75;6033938;23;20034;-72
2022/05/03 02:20:28;;;;;;;4.63;4.43;;;;;;;8.44;81.84;101266.84;6106108;23;20025;-72
2022/05/03 02:23:34;;;;;;;5.00;4.80;;;;;;;7.93;82.22;101179.59;6085196;23;20018;-71
2022/05/03 02:26:18;;;;;;;5.55;5.25;;;;;;;8.19;81.69;101223.16;6106377;23;20017;-70
2022/05/03 02:28:53;;;;;;;4.20;4.00;;;;;;;8.21;82.04;101257.09;6064714;23;20020;-72
2022/05/03 02:31:30;;;;;;;3.90;3.80;;;;;;;8.34;81.75;101249.72;6097217;23;20495;-72
2022/05/03 02:34:06;;;;;;;5.75;5.45;;;;;;;7.90;82.54;101192.78;6042070;23;20030;-73
2022/05/03 02:36:39;;;;;;;4.38;4.18;;;;;;;7.98;81.75;101211.69;6110204;23;20135;-72
2022/05/03 02:39:06;;;;;;;;;;;;;;;8.17;82.79;101258.97;6047822;23;20019;-71
2022/05/03 02:41:36;;;;;;;3.60;3.50;;;;;;;8.12;83.18;101257.44;6106563;23;20327;-72
2022/05/03 02:44:03;;;;;;;5.20;5.00;;;;;;;8.07;83.50;101265.41;6083534;23;20025;-73
2022/05/03 02:46:56;;;;;;;4.20;4.00;;;;;;;6.39;83.67;100972.22;6055512;23;20014;-72
2022/05/03 02:49:41;;;;;;;4.60;4.40;;;;;;;8.12;83.17;101266.13;6066556;23;20471;-73
2022/05/03 02:52:27;;;;;;;4.07;3.88;;;;;;;8.10;83.85;101251.41;6084370;23;20045;-73
2022/05/03 02:55:18;;;;;;;4.70;4.50;;;;;;;8.06;84.06;101254.97;6058732;23;20034;-72
2022/05/03 02:58:09;;;;;;;4.15;3.88;;;;;;;8.03;83.52;101263.78;6103115;23;20371;-73
2022/05/03 03:04:01;;;;;;;4.78;4.57;;;;;;;7.87;84.23;101239.91;6055493;23;20071;-72
2022/05/03 03:06:32;;;;;;;4.47;4.15;;;;;;;7.91;84.01;101251.97;6076716;23;20054;-70
2022/05/03 03:09:00;;;;;;;5.95;5.65;;;;;;;7.86;85.09;101242.56;6109537;23;20085;-71
2022/05/03 03:11:34;;;;;;;4.30;4.05;;;;;;;7.84;84.58;101253.09;6087207;23;20030;-71
2022/05/03 03:14:10;;;;;;;5.90;5.60;;;;;;;7.81;84.89;101255.78;6095916;23;20438;-73
2022/05/03 03:16:52;;;;;;;4.00;3.80;;;;;;;7.77;84.35;101257.63;6089664;23;20022;-72
2022/05/03 03:19:38;;;;;;;4.10;3.90;;;;;;;7.74;85.06;101251.66;6109051;23;20088;-72
2022/05/03 03:22:13;;;;;;;5.18;4.97;;;;;;;7.31;85.35;101198.16;6072305;23;20236;-71
2022/05/03 03:24:40;;;;;;;4.20;4.00;;;;;;;7.70;85.80;101268.34;6115480;23;20174;-72
2022/05/03 03:27:11;;;;;;;4.35;4.15;;;;;;;7.18;86.11;101164.59;6079493;23;20029;-71
2022/05/03 03:29:38;;;;;;;4.10;3.90;;;;;;;7.62;85.87;101247.69;6104325;23;20201;-71
2022/05/03 03:32:09;;;;;;;5.15;4.95;;;;;;;7.66;84.97;101257.13;6077474;23;20018;-72
2022/05/03 03:34:37;;;;;;;4.40;4.20;;;;;;;7.63;85.08;101248.53;6107399;23;20048;-73
2022/05/03 03:37:07;;;;;;;5.93;5.63;;;;;;;7.43;85.66;101225.63;6051477;23;20456;-72
2022/05/03 03:39:36;;;;;;;3.60;3.50;;;;;;;7.38;85.77;101212.72;6111000;23;20037;-72
2022/05/03 03:42:06;;;;;;;5.25;5.05;;;;;;;7.59;86.43;101251.22;6035996;23;20038;-72
2022/05/03 03:44:33;;;;;;;4.40;4.10;;;;;;;7.60;86.10;101244.25;6107720;23;20758;-72
2022/05/03 03:47:01;;;;;;;5.68;5.45;;;;;;;7.09;86.28;101174.44;6052865;23;20624;-72
2022/05/03 03:49:29;;;;;;;4.00;3.80;;;;;;;6.37;86.74;101057.44;6103830;23;20013;-72
2022/05/03 03:51:59;;;;;;;4.45;4.25;;;;;;;7.49;86.24;101241.97;6058991;23;20022;-72
2022/05/03 03:54:26;;;;;;;3.97;3.78;;;;;;;6.74;87.60;101137.22;6112780;23;20073;-71
2022/05/03 03:56:54;;;;;;;3.60;3.50;;;;;;;7.45;86.67;101250.78;6053901;23;20503;-71
2022/05/03 03:59:21;;;;;;;3.55;3.45;;;;;;;7.33;86.32;101230.28;6110661;23;20253;-72
2022/05/03 04:01:50;;;;;;;4.00;3.80;;;;;;;7.50;86.41;101261.13;6089970;23;20022;-72
2022/05/03 04:04:17;;;;;;;4.13;3.95;;;;;;;7.15;86.97;101203.81;6119994;23;20050;-72
2022/05/03 04:06:44;;;;;;;4.03;3.83;;;;;;;6.99;86.67;101184.28;6090433;23;20166;-72
2022/05/03 04:09:10;;;;;;;4.18;3.97;;;;;;;7.46;87.06;101264.72;6120324;23;20006;-71
2022/05/03 04:11:45;;;;;;;3.70;3.60;;;;;;;7.09;87.31;101204.00;6087531;23;20037;-73
2022/05/03 04:14:12;;;;;;;3.75;3.60;;;;;;;7.08;87.01;101207.53;6104706;23;20060;-73
2022/05/03 04:16:39;;;;;;;3.95;3.80;;;;;;;7.49;86.95;101265.47;6086890;23;20080;-72
2022/05/03 04:19:06;;;;;;;5.50;5.30;;;;;;;7.32;87.01;101231.19;6102601;23;20037;-73
2022/05/03 04:21:33;;;;;;;3.70;3.60;;;;;;;7.66;86.38;101277.16;6080163;23;20089;-71
2022/05/03 04:23:59;;;;;;;4.72;4.53;;;;;;;7.50;85.96;101235.84;6111156;23;20094;-73
2022/05/03 04:26:27;;;;;;;3.72;3.63;;;;;;;7.32;85.45;101194.66;6078296;23;20056;-71
2022/05/03 04:28:57;;;;;;;5.22;5.03;;;;;;;7.78;86.17;101255.91;6108281;23;20029;-71
2022/05/03 04:31:25;;;;;;;3.60;3.50;;;;;;;7.22;85.29;101149.69;6066020;23;20052;-72
2022/05/03 04:33:53;;;;;;;5.38;5.07;;;;;;;7.53;84.04;101188.72;6054610;23;20045;-72
2022/05/03 04:36:21;;;;;;;4.00;3.80;;;;;;;8.06;83.72;101254.97;6129025;23;20446;-72
2022/05/03 04:38:48;;;;;;;3.95;3.75;;;;;;;7.49;82.89;101145.34;6064019;23;20195;-72
2022/05/03 04:41:15;;;;;;;3.70;3.60;;;;;;;8.39;82.21;101294.84;6117544;23;20452;-74
2022/05/03 04:43:43;;;;;;;4.00;3.80;;;;;;;8.05;82.05;101232.38;6085238;23;20419;-71
2022/05/03 04:46:10;;;;;;;4.25;4.03;;;;;;;8.52;81.42;101287.47;6109912;23;20275;-74
2022/05/03 04:48:36;;;;;;;4.00;3.80;;;;;;;8.28;80.83;101222.00;6081610;23;20060;-72
2022/05/03 04:51:03;;;;;;;6.05;5.75;;;;;;;8.59;79.57;101240.13;6096400;23;20422;-73
2022/05/03 04:53:30;;;;;;;3.90;3.70;;;;;;;9.05;78.38;101299.59;6066794;23;20589;-72
2022/05/03 04:55:56;;;;;;;5.15;4.95;;;;;;;9.32;77.40;101303.84;6105440;23;20021;-72
2022/05/03 04:58:23;;;;;;;4.32;4.10;;;;;;;9.73;76.78;101332.00;6084369;23;20100;-73
2022/05/03 05:00:50;;;;;;;4.60;4.38;;;;;;;9.02;74.79;101155.72;6097842;23;20026;-72
2022/05/03 05:03:18;;;;;;;4.10;3.90;;;;;;;10.28;73.20;101311.44;6076130;23;20361;-73
2022/05/03 05:05:45;;;;;;;4.20;4.00;;;;;;;10.52;72.29;101313.97;6109538;23;20066;-74
2022/05/03 05:08:12;;;;;;;4.82;4.63;;;;;;;10.35;71.13;101246.50;6053378;23;20030;-73
2022/05/03 05:10:38;;;;;;;4.50;4.30;;;;;;;10.95;70.19;101306.91;6087966;23;20009;-73
2022/05/03 05:13:05;;;;;;;5.93;5.63;;;;;;;11.05;69.72;101309.97;6070055;23;20046;-73
2022/05/03 05:15:35;;;;;;;4.72;4.53;;;;;;;10.60;69.03;101267.25;6108272;23;20079;-73
2022/05/03 05:18:02;;;;;;;5.47;5.28;;;;;;;11.05;68.50;101291.59;6081392;23;20022;-73
2022/05/03 05:20:29;;;;;;;4.30;4.00;;;;;;;10.11;68.80;101178.38;6049709;23;20141;-71
2022/05/03 05:22:55;;;;;;;5.53;5.32;;;;;;;10.98;68.48;101286.63;6110858;23;20067;-73
2022/05/03 05:25:41;;;;;;;4.70;4.47;;;;;;;11.35;67.69;101302.50;6083241;23;20031;-74
2022/05/03 05:28:08;;;;;;;4.95;4.75;;;;;;;11.08;67.12;101238.91;6085780;23;20520;-73
2022/05/03 05:30:34;;;;;;;4.47;4.28;;;;;;;11.16;65.57;101214.00;6079166;23;20022;-73
2022/05/03 05:33:01;;;;;;;6.07;5.78;;;;;;;12.04;64.42;101280.84;6071597;23;20025;-72
2022/05/03 05:35:27;;;;;;;4.90;4.70;;;;;;;12.09;63.43;101312.19;6026783;23;20024;-73
2022/05/03 05:37:54;;;;;;;6.13;5.72;;;;;;;12.24;63.13;101316.69;6070873;23;20802;-73
2022/05/03 05:40:21;;;;;;;4.90;4.70;;;;;;;12.09;62.53;101318.31;6049552;23;20546;-73
2022/05/03 05:42:49;;;;;;;4.60;4.40;;;;;;;11.94;62.17;101293.59;6075648;23;20026;-73
2022/05/03 05:45:17;;;;;;;4.90;4.70;;;;;;;12.60;61.77;101322.84;6107140;23;20076;-74
2022/05/03 05:47:43;;;;;;;4.78;4.57;;;;;;;12.53;60.43;101299.47;6076655;23;20020;-74
2022/05/03 05:50:11;;;;;;;5.47;5.07;;;;;;;12.02;59.26;101169.56;6101595;23;20017;-73
2022/05/03 05:55:23;;;;;;;4.90;4.70;;;;;;;12.32;57.77;101247.88;6106170;23;20025;-72
2022/05/03 05:57:50;;;;;;;4.82;4.63;;;;;;;12.69;59.26;101307.44;6074028;23;20553;-72
2022/05/03 06:00:18;;;;;;;5.78;5.53;;;;;;;12.69;58.43;101314.47;6099188;23;20020;-74
2022/05/03 06:02:45;;;;;;;5.07;4.82;;;;;;;11.73;60.43;101242.84;6082231;23;20035;-73
2022/05/03 06:05:11;;;;;;;4.85;4.65;;;;;;;11.84;61.53;101323.84;6103346;23;20009;-73
2022/05/03 06:07:38;;;;;;;4.68;4.47;;;;;;;11.87;61.84;101322.88;6081061;23;20021;-74
2022/05/03 06:10:05;;;;;;;6.95;6.65;;;;;;;11.07;62.08;101237.22;6046034;23;20040;-70
2022/05/03 06:12:31;;;;;;;4.55;4.35;;;;;;;11.66;61.76;101278.25;6068402;23;20010;-72
2022/05/03 06:14:58;;;;;;;6.20;5.90;;;;;;;11.61;62.60;101321.47;6077113;23;20095;-72
2022/05/03 06:17:24;;;;;;;4.65;4.45;;;;;;;11.77;62.01;101327.72;6077901;23;20018;-75
2022/05/03 06:19:51;;;;;;;5.68;5.43;;;;;;;11.81;61.89;101331.91;6105304;23;20100;-73
2022/05/03 06:22:20;;;;;;;5.05;4.85;;;;;;;11.86;61.49;101324.63;6087662;23;20018;-75
2022/05/03 06:24:47;;;;;;;4.75;4.55;;;;;;;11.08;62.25;101260.75;6104485;23;20024;-73
2022/05/03 06:27:14;;;;;;;4.50;4.30;;;;;;;11.22;61.53;101277.69;6080031;23;20266;-72
2022/05/03 06:29:42;;;;;;;4.47;4.28;;;;;;;11.26;61.22;101279.25;6097964;23;20182;-71
2022/05/03 06:32:10;;;;;;;4.32;4.13;;;;;;;11.53;61.71;101341.06;6070457;23;20852;-73
2022/05/03 06:34:39;;;;;;;5.05;4.75;;;;;;;11.62;60.55;101333.69;6113171;23;20040;-73
2022/05/03 06:37:06;;;;;;;5.30;5.10;;;;;;;10.89;61.69;101213.50;6070330;23;20056;-72
2022/05/03 06:39:36;;;;;;;4.95;4.72;;;;;;;11.09;60.62;101264.28;6103786;23;20572;-73
2022/05/03 06:42:06;;;;;;;5.97;5.68;;;;;;;11.21;59.83;101244.47;6031859;23;20651;-75
2022/05/03 06:44:33;;;;;;;5.07;4.78;;;;;;;12.06;59.87;101343.91;6096500;23;20057;-73
2022/05/03 06:46:59;;;;;;;5.75;5.45;;;;;;;12.12;57.91;101343.63;6052366;23;20026;-72
2022/05/03 06:49:26;;;;;;;5.68;5.28;;;;;;;12.34;57.15;101351.31;6104289;23;20025;-73
2022/05/03 06:51:52;;;;;;;5.53;5.32;;;;;;;12.32;57.74;101346.13;6070283;23;20014;-73
2022/05/03 06:54:19;;;;;;;4.43;4.22;;;;;;;11.68;56.37;101244.84;6108627;23;20018;-72
2022/05/03 06:56:45;;;;;;;4.40;4.20;;;;;;;12.46;56.46;101353.34;6071910;23;20018;-74
2022/05/03 06:59:12;;;;;;;4.57;4.38;;;;;;;12.16;55.69;101303.91;6100561;23;20119;-74
2022/05/03 07:01:38;;;;;;;5.30;5.00;;;;;;;12.29;56.58;101346.28;6073254;23;20502;-71
2022/05/03 07:04:10;;;;;;;4.50;4.30;;;;;;;12.13;57.25;101364.59;6044678;23;20007;-73
2022/05/03 07:06:37;;;;;;;4.70;4.50;;;;;;;11.82;55.85;101336.22;6083634;23;20036;-73
2022/05/03 07:09:03;;;;;;;6.78;6.40;;;;;;;11.85;57.52;101370.28;6111062;23;20018;-72
2022/05/03 07:11:30;;;;;;;4.35;4.15;;;;;;;11.53;57.81;101317.41;6082846;23;20028;-71
2022/05/03 07:13:57;;;;;;;5.82;5.55;;;;;;;11.63;56.67;101346.75;6096432;23;20045;-71
2022/05/03 07:16:23;;;;;;;20.20;19.20;;;;;;;11.53;57.75;101271.88;6038817;23;20026;-71
2022/05/03 07:24:23;;;;;;;4.50;4.30;;;;;;;12.33;57.11;101357.53;6109287;23;20069;-71
2022/05/03 07:26:49;;;;;;;5.03;4.82;;;;;;;11.58;55.26;101210.25;6078177;23;20775;-70
2022/05/03 07:29:15;;;;;;;4.55;4.35;;;;;;;12.70;54.97;101380.22;6045055;23;20014;-71
2022/05/03 07:31:43;;;;;;;4.68;4.47;;;;;;;12.71;55.86;101400.38;6110349;23;20556;-72
2022/05/03 07:34:10;;;;;;;4.95;4.75;;;;;;;12.28;55.33;101291.94;6076932;23;20034;-72
2022/05/03 07:36:36;;;;;;;4.70;4.50;;;;;;;12.52;54.12;101300.38;6102367;23;20018;-73
2022/05/03 07:39:03;;;;;;;6.20;5.90;;;;;;;12.75;52.83;101365.06;6081899;23;20081;-73
2022/05/03 07:41:29;;;;;;;4.40;4.20;;;;;;;12.43;54.47;101386.84;6113345;23;20498;-71
2022/05/03 07:43:56;;;;;;;6.10;5.80;;;;;;;12.43;53.76;101334.19;6074582;23;20006;-72
2022/05/03 07:46:22;;;;;;;4.20;4.00;;;;;;;12.77;53.70;101381.63;6118900;23;20086;-71
2022/05/03 07:48:49;;;;;;;5.03;4.72;;;;;;;13.14;54.37;101369.19;6045178;23;20073;-72
2022/05/03 07:51:17;;;;;;;6.28;4.20;;;;;;;13.24;53.59;101376.63;6113551;23;20479;-73
2022/05/03 07:53:43;;;;;;;4.30;4.10;;;;;;;12.86;53.63;101321.50;6060016;23;20494;-72
2022/05/03 07:56:10;;;;;;;4.63;4.43;;;;;;;13.22;53.68;101357.41;6109094;23;20821;-72
2022/05/03 07:58:37;;;;;;;4.75;4.55;;;;;;;12.64;52.61;101250.66;6086613;23;20030;-71
2022/05/03 08:01:04;;;;;;;4.50;4.30;;;;;;;13.38;54.64;101366.22;6059963;23;20033;-72
2022/05/03 08:03:31;;;;;;;4.43;4.22;;;;;;;13.51;51.32;101337.41;6109932;23;20025;-72
2022/05/03 08:05:58;;;;;;;5.88;5.57;;;;;;;13.62;51.59;101377.25;6056123;23;20181;-72
2022/05/03 08:08:25;;;;;;;4.60;4.40;;;;;;;13.80;51.21;101374.56;6115032;23;20089;-73
2022/05/03 08:10:52;;;;;;;5.47;5.18;;;;;;;13.26;50.65;101291.25;6079462;23;20073;-71
2022/05/03 08:13:20;;;;;;;4.57;4.38;;;;;;;13.91;49.80;101367.75;6109611;23;20033;-74
2022/05/03 08:15:47;;;;;;;4.55;4.35;;;;;;;13.90;48.47;101352.84;6078927;23;20105;-73
2022/05/03 08:18:14;;;;;;;4.90;4.60;;;;;;;14.38;48.19;101381.84;6109454;23;20656;-73
2022/05/03 08:20:40;;;;;;;4.80;4.60;;;;;;;14.21;47.94;101374.88;6085109;23;20037;-70
2022/05/03 08:23:07;;;;;;;5.57;5.35;;;;;;;13.94;47.35;101343.81;6103885;23;20147;-71
2022/05/03 08:25:36;;;;;;;4.40;4.20;;;;;;;14.18;48.12;101388.25;6072564;23;20133;-71
2022/05/03 08:28:04;;;;;;;7.07;6.78;;;;;;;14.75;45.34;101392.94;6101992;23;20026;-74
2022/05/03 08:30:31;;;;;;;4.55;4.35;;;;;;;14.72;45.25;101396.63;6046559;23;20038;-74
2022/05/03 08:32:57;;;;;;;5.85;5.55;;;;;;;14.38;44.98;101363.34;6078505;23;20540;-73
2022/05/03 08:35:24;;;;;;;4.60;4.40;;;;;;;14.72;44.51;101383.41;6108673;23;20019;-74
2022/05/03 08:43:23;;;;;;;4.72;4.53;;;;;;;14.76;42.36;101318.03;6069622;23;20105;-74
2022/05/03 08:45:50;;;;;;;5.53;5.22;;;;;;;15.16;41.24;101395.78;6053167;23;20606;-74
2022/05/03 08:48:18;;;;;;;4.90;4.70;;;;;;;15.09;43.06;101399.72;6106734;23;20029;-70
2022/05/03 08:50:46;;;;;;;4.80;4.60;;;;;;;15.27;42.35;101392.47;6063246;23;20021;-75
2022/05/03 08:53:14;;;;;;;5.32;5.03;;;;;;;14.84;42.06;101359.84;6105728;23;20537;-74
2022/05/03 08:55:41;;;;;;;5.32;5.03;;;;;;;14.81;41.78;101328.31;6081477;23;20022;-73
2022/05/03 08:58:08;;;;;;;4.65;4.45;;;;;;;15.18;41.40;101400.13;6109723;23;20020;-72
2022/05/03 09:00:35;;;;;;;5.05;4.78;;;;;;;14.91;42.17;101398.16;6084218;23;20032;-72
2022/05/03 09:03:03;;;;;;;5.22;5.03;;;;;;;14.91;42.03;101384.97;6105687;23;20049;-72
2022/05/03 09:05:29;;;;;;;4.60;4.40;;;;;;;14.94;41.07;101371.56;6087946;23;20040;-72
2022/05/03 09:08:00;;;;;;;5.88;5.57;;;;;;;14.83;41.18;101329.06;6107030;23;20018;-72
2022/05/03 09:10:29;;;;;;;4.55;4.35;;;;;;;15.44;41.06;101409.13;6076011;23;20028;-73
2022/05/03 09:13:17;;;;;;;6.40;6.10;;;;;;;15.24;40.77;101410.34;6046485;23;20018;-73
2022/05/03 09:15:46;;;;;;;4.65;4.45;;;;;;;15.35;42.53;101416.69;6107111;23;20049;-72
2022/05/03 09:18:26;;;;;;;5.68;5.15;;;;;;;15.28;41.02;101409.19;6076785;23;20058;-74
2022/05/03 09:23:49;;;;;;;4.75;4.55;;;;;;;15.83;41.19;101403.16;6078348;23;20028;-73
2022/05/03 09:26:18;;;;;;;4.63;4.43;;;;;;;15.93;38.94;101412.22;6104510;23;20463;-73
2022/05/03 09:28:58;;;;;;;5.63;5.32;;;;;;;16.31;38.06;101408.91;6071938;23;20010;-74
2022/05/03 09:31:35;;;;;;;4.82;4.63;;;;;;;16.10;38.23;101412.97;6108110;23;20039;-73
2022/05/03 09:34:27;;;;;;;6.03;5.72;;;;;;;16.23;38.23;101378.59;6046169;23;20014;-74
2022/05/03 09:36:54;;;;;;;6.38;6.07;;;;;;;16.14;38.30;101403.88;6092591;23;20045;-75
2022/05/03 09:39:41;;;;;;;4.90;4.70;;;;;;;16.19;38.54;101351.44;6056838;23;20067;-75
2022/05/03 09:42:19;;;;;;;5.72;5.43;;;;;;;16.94;38.25;101391.53;6102020;23;20768;-74
2022/05/03 09:45:03;;;;;;;4.80;4.60;;;;;;;16.21;36.97;101331.00;6079850;23;20030;-74
2022/05/03 09:47:35;;;;;;;4.57;4.38;;;;;;;15.99;36.52;101339.50;6113401;23;20013;-74
2022/05/03 09:50:02;;;;;;;6.18;5.82;;;;;;;16.66;37.12;101407.56;6051988;23;20693;-72
2022/05/03 09:52:30;;;;;;;5.43;5.18;;;;;;;16.36;38.14;101398.03;6084679;23;20021;-73
2022/05/03 09:55:07;;;;;;;5.88;5.60;;;;;;;16.54;38.49;101393.31;6048053;23;20029;-73
2022/05/03 09:57:36;;;;;;;4.80;4.60;;;;;;;16.78;37.63;101417.34;6107026;23;20534;-73
2022/05/03 10:00:05;;;;;;;5.90;5.60;;;;;;;16.05;37.26;101314.44;6076570;23;20030;-74
2022/05/03 10:02:32;;;;;;;5.05;4.85;;;;;;;17.35;36.31;101408.19;6091484;23;20025;-72
2022/05/03 10:04:59;;;;;;;6.40;6.10;;;;;;;16.96;36.96;101386.13;6052349;23;20026;-73
2022/05/03 10:07:26;;;;;;;5.13;4.82;;;;;;;16.82;35.98;101392.34;6112195;23;20322;-72
2022/05/03 10:09:53;;;;;;;5.32;5.13;;;;;;;17.30;36.55;101389.13;6050440;23;20072;-73
2022/05/03 10:12:20;;;;;;;4.97;4.78;;;;;;;17.62;35.16;101400.13;6053033;23;20083;-74
2022/05/03 10:14:48;;;;;;;4.70;4.50;;;;;;;17.77;34.92;101406.13;6104851;23;20080;-74
2022/05/03 10:20:40;;;;;;;5.28;5.00;;;;;;;17.19;36.16;101347.41;6108164;23;20013;-74
2022/05/03 10:23:19;;;;;;;4.82;4.63;;;;;;;17.88;35.95;101395.63;6077808;23;20355;-73
2022/05/03 10:25:46;;;;;;;5.35;5.10;;;;;;;17.92;35.42;101393.59;6056307;23;20037;-72
2022/05/03 10:28:13;;;;;;;5.50;5.20;;;;;;;18.04;33.65;101405.13;6088378;23;20424;-74
2022/05/03 10:31:05;;;;;;;5.00;4.80;;;;;;;17.40;33.83;101261.94;6052674;23;20362;-74
2022/05/03 10:33:32;;;;;;;4.95;4.75;;;;;;;17.95;33.23;101393.38;6097740;23;20080;-74
2022/05/03 10:36:00;;;;;;;6.15;5.85;;;;;;;17.98;34.13;101394.94;6076765;23;20036;-75
2022/05/03 10:38:38;;;;;;;5.20;4.97;;;;;;;17.92;33.44;101385.63;6104633;23;20454;-73
2022/05/03 10:41:05;;;;;;;6.40;6.00;;;;;;;18.16;34.17;101376.81;6074518;23;20026;-74
2022/05/03 10:43:33;;;;;;;4.85;4.65;;;;;;;17.63;33.82;101331.94;6087229;23;20345;-73
2022/05/03 10:46:15;;;;;;;6.40;6.05;;;;;;;17.31;35.22;101380.19;6059977;23;20049;-75
2022/05/03 10:48:42;;;;;;;5.00;4.80;;;;;;;16.92;36.72;101363.44;6122776;23;20024;-74
2022/05/03 10:51:11;;;;;;;6.65;5.93;;;;;;;16.89;35.74;101327.34;6075352;23;20010;-73
2022/05/03 10:53:41;;;;;;;5.80;5.50;;;;;;;17.19;36.00;101368.63;6029914;23;20010;-73
2022/05/03 10:56:16;;;;;;;6.45;6.07;;;;;;;17.21;35.52;101373.81;6115526;23;20030;-73
2022/05/03 10:58:45;;;;;;;5.40;5.10;;;;;;;17.51;37.11;101371.66;6082693;23;20029;-74
2022/05/03 11:01:23;;;;;;;5.47;5.18;;;;;;;17.88;35.52;101368.22;6111126;23;20018;-74
2022/05/03 11:03:59;;;;;;;5.13;4.90;;;;;;;17.70;34.91;101368.56;6079845;23;20014;-74
2022/05/03 11:06:26;;;;;;;5.10;4.90;;;;;;;18.09;36.38;101357.84;6108409;23;20280;-72
2022/05/03 11:11:42;;;;;;;5.78;5.40;;;;;;;17.72;34.34;101373.75;6111559;23;20083;-73
2022/05/03 11:14:18;;;;;;;5.70;5.40;;;;;;;18.18;34.94;101364.28;6079715;23;20014;-73
2022/05/03 11:16:47;;;;;;;5.57;5.28;;;;;;;18.47;33.54;101364.78;6117605;23;20047;-74
2022/05/03 11:19:16;;;;;;;4.90;4.70;;;;;;;18.16;34.47;101360.88;6081850;23;20053;-74
2022/05/03 11:21:45;;;;;;;5.00;4.80;;;;;;;17.87;35.42;101359.41;6113100;23;20025;-74
2022/05/03 11:24:22;;;;;;;5.28;4.97;;;;;;;17.94;34.70;101336.75;6068759;23;20022;-73
2022/05/03 11:26:56;;;;;;;4.85;4.65;;;;;;;18.46;34.82;101344.47;6104941;23;20329;-73
2022/05/03 11:29:50;;;;;;;5.82;5.53;;;;;;;18.21;33.32;101359.59;6044861;23;20911;-73
2022/05/03 11:32:29;;;;;;;6.00;5.60;;;;;;;18.50;32.89;101341.50;6112101;23;20502;-73
2022/05/03 11:35:03;;;;;;;6.38;6.07;;;;;;;17.86;33.06;101190.44;6077215;23;20026;-72
2022/05/03 11:37:29;;;;;;;5.38;5.15;;;;;;;18.88;32.46;101344.84;6057016;23;20142;-73
2022/05/03 11:40:08;;;;;;;6.68;6.38;;;;;;;19.30;33.50;101342.47;6076784;23;20024;-73
2022/05/03 11:42:39;;;;;;;6.18;5.35;;;;;;;18.71;32.27;101271.69;6051563;23;20259;-74
2022/05/03 11:45:07;;;;;;;5.93;5.63;;;;;;;19.17;33.96;101300.03;6092276;23;20399;-72
2022/05/03 11:47:41;;;;;;;5.20;5.00;;;;;;;18.77;32.75;101295.13;6087742;23;20969;-73
2022/05/03 11:50:09;;;;;;;6.95;6.55;;;;;;;18.36;32.39;101296.47;6075833;23;20374;-72
2022/05/03 11:58:07;;;;;;;5.97;5.68;;;;;;;18.62;33.64;101328.22;6107162;23;20045;-73
2022/05/03 12:00:44;;;;;;;5.38;5.18;;;;;;;18.14;33.45;101257.38;6073548;23;20518;-73
2022/05/03 12:03:11;;;;;;;6.35;6.03;;;;;;;18.71;33.05;101315.06;6105497;23;20019;-73
2022/05/03 12:05:39;;;;;;;5.53;5.22;;;;;;;19.03;32.02;101319.75;6084798;23;20026;-74
2022/05/03 12:08:18;;;;;;;6.72;6.32;;;;;;;19.03;31.71;101266.53;6083928;23;20037;-73
2022/05/03 12:10:44;;;;;;;5.05;4.85;;;;;;;19.17;31.85;101321.31;6068385;23;20010;-74
2022/05/03 12:13:14;;;;;;;6.25;5.75;;;;;;;18.79;32.08;101292.38;6079337;23;20044;-73
2022/05/03 12:15:42;;;;;;;5.38;5.18;;;;;;;18.68;32.04;101285.19;6079392;23;20222;-73
2022/05/03 12:18:20;;;;;;;5.45;5.15;;;;;;;18.76;32.58;101269.50;6103016;23;20021;-73
2022/05/03 12:21:00;;;;;;;7.15;6.65;;;;;;;19.12;31.44;101307.53;6074247;23;20451;-72
2022/05/03 12:23:36;;;;;;;6.50;6.05;;;;;;;18.50;33.08;101306.94;6112235;23;20305;-75
2022/05/03 12:26:15;;;;;;;6.00;5.60;;;;;;;18.46;31.98;101309.91;6052955;23;20405;-75